sensor_id;sensor_type;location;lat;lon;timestamp;temperature;humidity
25346;DHT22;13300;51.032;3.710;2023-12-07T00:01:34;2.40;99.90
25346;DHT22;13300;51.032;3.710;2023-12-07T00:04:00;2.30;99.90
25346;DHT22;13300;51.032;3.710;2023-12-07T00:06:26;2.40;99.90
25346;DHT22;13300;51.032;3.710;2023-12-07T00:08:52;2.30;99.90
25346;DHT22;13300;51.032;3.710;2023-12-07T00:11:18;2.30;99.90
25346;DHT22;13300;51.032;3.710;2023-12-07T00:13:43;2.30;99.90
25346;DHT22;13300;51.032;3.710;2023-12-07T00:16:09;2.50;99.90
25346;DHT22;13300;51.032;3.710;2023-12-07T00:18:35;2.60;99.90
25346;DHT22;13300;51.032;3.710;2023-12-07T00:21:01;2.50;99.90
25346;DHT22;13300;51.032;3.710;2023-12-07T00:23:27;2.60;99.90
25346;DHT22;13300;51.032;3.710;2023-12-07T00:25:52;2.60;99.90
25346;DHT22;13300;51.032;3.710;2023-12-07T00:28:18;2.60;99.90
25346;DHT22;13300;51.032;3.710;2023-12-07T00:30:43;2.80;99.90
25346;DHT22;13300;51.032;3.710;2023-12-07T00:33:09;2.90;99.90
25346;DHT22;13300;51.032;3.710;2023-12-07T00:35:35;3.00;99.90
25346;DHT22;13300;51.032;3.710;2023-12-07T00:38:01;3.00;99.90
25346;DHT22;13300;51.032;3.710;2023-12-07T00:40:27;3.00;99.90
25346;DHT22;13300;51.032;3.710;2023-12-07T00:42:53;2.90;99.90
25346;DHT22;13300;51.032;3.710;2023-12-07T00:45:19;3.00;99.90
25346;DHT22;13300;51.032;3.710;2023-12-07T00:47:45;3.00;99.90
25346;DHT22;13300;51.032;3.710;2023-12-07T00:50:14;2.90;99.90
25346;DHT22;13300;51.032;3.710;2023-12-07T00:52:40;3.00;99.90
25346;DHT22;13300;51.032;3.710;2023-12-07T00:55:06;3.00;99.90
25346;DHT22;13300;51.032;3.710;2023-12-07T00:57:31;3.00;99.90
25346;DHT22;13300;51.032;3.710;2023-12-07T00:59:57;3.10;99.90
25346;DHT22;13300;51.032;3.710;2023-12-07T01:02:23;3.00;99.90
25346;DHT22;13300;51.032;3.710;2023-12-07T01:04:50;3.10;99.90
25346;DHT22;13300;51.032;3.710;2023-12-07T01:07:16;3.00;99.90
25346;DHT22;13300;51.032;3.710;2023-12-07T01:09:41;3.00;99.90
25346;DHT22;13300;51.032;3.710;2023-12-07T01:12:07;3.10;99.90
25346;DHT22;13300;51.032;3.710;2023-12-07T01:14:33;3.10;99.90
25346;DHT22;13300;51.032;3.710;2023-12-07T01:16:58;3.20;99.90
25346;DHT22;13300;51.032;3.710;2023-12-07T01:19:24;3.30;99.90
25346;DHT22;13300;51.032;3.710;2023-12-07T01:21:50;3.40;99.90
25346;DHT22;13300;51.032;3.710;2023-12-07T01:24:16;3.30;99.90
25346;DHT22;13300;51.032;3.710;2023-12-07T01:26:42;3.20;99.90
25346;DHT22;13300;51.032;3.710;2023-12-07T01:29:07;3.30;99.90
25346;DHT22;13300;51.032;3.710;2023-12-07T01:31:33;3.50;99.90
25346;DHT22;13300;51.032;3.710;2023-12-07T01:33:59;3.50;99.90
25346;DHT22;13300;51.032;3.710;2023-12-07T01:36:24;3.70;99.90
25346;DHT22;13300;51.032;3.710;2023-12-07T01:38:50;3.60;99.90
25346;DHT22;13300;51.032;3.710;2023-12-07T01:41:16;3.50;99.90
25346;DHT22;13300;51.032;3.710;2023-12-07T01:43:45;3.50;99.90
25346;DHT22;13300;51.032;3.710;2023-12-07T01:46:11;3.50;99.90
25346;DHT22;13300;51.032;3.710;2023-12-07T01:48:37;3.60;99.90
25346;DHT22;13300;51.032;3.710;2023-12-07T01:51:03;3.60;99.90
25346;DHT22;13300;51.032;3.710;2023-12-07T01:53:29;3.50;99.90
25346;DHT22;13300;51.032;3.710;2023-12-07T01:55:55;3.50;99.90
25346;DHT22;13300;51.032;3.710;2023-12-07T01:58:22;3.70;99.90
25346;DHT22;13300;51.032;3.710;2023-12-07T02:00:48;3.70;99.90
25346;DHT22;13300;51.032;3.710;2023-12-07T02:03:16;3.60;99.90
25346;DHT22;13300;51.032;3.710;2023-12-07T02:05:47;3.80;99.90
25346;DHT22;13300;51.032;3.710;2023-12-07T02:08:12;3.80;99.90
25346;DHT22;13300;51.032;3.710;2023-12-07T02:10:38;3.70;99.90
25346;DHT22;13300;51.032;3.710;2023-12-07T02:13:04;3.60;99.90
25346;DHT22;13300;51.032;3.710;2023-12-07T02:15:30;3.60;99.90
25346;DHT22;13300;51.032;3.710;2023-12-07T02:18:14;3.70;99.90
25346;DHT22;13300;51.032;3.710;2023-12-07T02:23:30;3.60;99.90
25346;DHT22;13300;51.032;3.710;2023-12-07T02:26:03;3.50;99.90
25346;DHT22;13300;51.032;3.710;2023-12-07T02:28:29;3.60;99.90
25346;DHT22;13300;51.032;3.710;2023-12-07T02:30:55;3.60;99.90
25346;DHT22;13300;51.032;3.710;2023-12-07T02:33:20;3.60;99.90
25346;DHT22;13300;51.032;3.710;2023-12-07T02:35:46;3.70;99.90
25346;DHT22;13300;51.032;3.710;2023-12-07T02:38:12;3.60;99.90
25346;DHT22;13300;51.032;3.710;2023-12-07T02:40:39;3.60;99.90
25346;DHT22;13300;51.032;3.710;2023-12-07T02:43:06;3.60;99.90
25346;DHT22;13300;51.032;3.710;2023-12-07T02:45:33;3.60;99.90
25346;DHT22;13300;51.032;3.710;2023-12-07T02:47:59;3.70;99.90
25346;DHT22;13300;51.032;3.710;2023-12-07T02:50:24;3.90;99.90
25346;DHT22;13300;51.032;3.710;2023-12-07T02:52:50;3.80;99.90
25346;DHT22;13300;51.032;3.710;2023-12-07T02:55:16;3.90;99.90
25346;DHT22;13300;51.032;3.710;2023-12-07T02:57:42;3.80;99.90
25346;DHT22;13300;51.032;3.710;2023-12-07T03:00:08;3.70;99.90
25346;DHT22;13300;51.032;3.710;2023-12-07T03:02:36;3.70;99.90
25346;DHT22;13300;51.032;3.710;2023-12-07T03:05:02;3.70;99.90
25346;DHT22;13300;51.032;3.710;2023-12-07T03:07:28;3.80;99.90
25346;DHT22;13300;51.032;3.710;2023-12-07T03:09:54;3.60;99.90
25346;DHT22;13300;51.032;3.710;2023-12-07T03:12:20;3.70;99.90
25346;DHT22;13300;51.032;3.710;2023-12-07T03:14:45;3.60;99.90
25346;DHT22;13300;51.032;3.710;2023-12-07T03:17:11;3.70;99.90
25346;DHT22;13300;51.032;3.710;2023-12-07T03:19:39;3.80;99.90
25346;DHT22;13300;51.032;3.710;2023-12-07T03:22:04;3.90;99.90
25346;DHT22;13300;51.032;3.710;2023-12-07T03:24:32;3.70;99.90
25346;DHT22;13300;51.032;3.710;2023-12-07T03:26:58;3.80;99.90
25346;DHT22;13300;51.032;3.710;2023-12-07T03:29:24;3.90;99.90
25346;DHT22;13300;51.032;3.710;2023-12-07T03:31:49;4.00;99.90
25346;DHT22;13300;51.032;3.710;2023-12-07T03:34:15;4.10;99.90
25346;DHT22;13300;51.032;3.710;2023-12-07T03:36:44;4.10;99.90
25346;DHT22;13300;51.032;3.710;2023-12-07T03:39:10;4.00;99.90
25346;DHT22;13300;51.032;3.710;2023-12-07T03:41:36;4.10;99.90
25346;DHT22;13300;51.032;3.710;2023-12-07T03:44:01;4.10;99.90
25346;DHT22;13300;51.032;3.710;2023-12-07T03:46:27;4.10;99.90
25346;DHT22;13300;51.032;3.710;2023-12-07T03:48:53;4.00;99.90
25346;DHT22;13300;51.032;3.710;2023-12-07T03:51:18;4.10;99.90
25346;DHT22;13300;51.032;3.710;2023-12-07T03:53:44;4.20;99.90
25346;DHT22;13300;51.032;3.710;2023-12-07T03:56:09;4.20;99.90
25346;DHT22;13300;51.032;3.710;2023-12-07T03:58:35;4.20;99.90
25346;DHT22;13300;51.032;3.710;2023-12-07T04:01:01;4.10;99.90
25346;DHT22;13300;51.032;3.710;2023-12-07T04:03:27;3.80;99.90
25346;DHT22;13300;51.032;3.710;2023-12-07T04:05:52;3.80;99.90
25346;DHT22;13300;51.032;3.710;2023-12-07T04:08:18;3.90;99.90
25346;DHT22;13300;51.032;3.710;2023-12-07T04:10:44;4.10;99.90
25346;DHT22;13300;51.032;3.710;2023-12-07T04:13:09;4.10;99.90
25346;DHT22;13300;51.032;3.710;2023-12-07T04:15:35;4.10;99.90
25346;DHT22;13300;51.032;3.710;2023-12-07T04:18:01;4.00;99.90
25346;DHT22;13300;51.032;3.710;2023-12-07T04:20:26;3.90;99.90
25346;DHT22;13300;51.032;3.710;2023-12-07T04:22:52;4.00;99.90
25346;DHT22;13300;51.032;3.710;2023-12-07T04:25:18;4.00;99.90
25346;DHT22;13300;51.032;3.710;2023-12-07T04:27:43;4.00;99.90
25346;DHT22;13300;51.032;3.710;2023-12-07T04:30:10;4.00;99.90
25346;DHT22;13300;51.032;3.710;2023-12-07T04:32:35;4.00;99.90
25346;DHT22;13300;51.032;3.710;2023-12-07T04:35:01;4.10;99.90
25346;DHT22;13300;51.032;3.710;2023-12-07T04:37:27;4.00;99.90
25346;DHT22;13300;51.032;3.710;2023-12-07T04:39:52;3.90;99.90
25346;DHT22;13300;51.032;3.710;2023-12-07T04:42:18;3.90;99.90
25346;DHT22;13300;51.032;3.710;2023-12-07T04:44:43;3.80;99.90
25346;DHT22;13300;51.032;3.710;2023-12-07T04:47:09;3.80;99.90
25346;DHT22;13300;51.032;3.710;2023-12-07T04:49:35;3.90;99.90
25346;DHT22;13300;51.032;3.710;2023-12-07T04:52:00;4.10;99.90
25346;DHT22;13300;51.032;3.710;2023-12-07T04:54:26;4.10;99.90
25346;DHT22;13300;51.032;3.710;2023-12-07T04:56:53;4.10;99.90
25346;DHT22;13300;51.032;3.710;2023-12-07T04:59:19;4.10;99.90
25346;DHT22;13300;51.032;3.710;2023-12-07T05:01:45;4.20;99.90
25346;DHT22;13300;51.032;3.710;2023-12-07T05:04:12;4.20;99.90
25346;DHT22;13300;51.032;3.710;2023-12-07T05:06:37;4.30;99.90
25346;DHT22;13300;51.032;3.710;2023-12-07T05:09:03;4.20;99.90
25346;DHT22;13300;51.032;3.710;2023-12-07T05:11:29;4.30;99.90
25346;DHT22;13300;51.032;3.710;2023-12-07T05:13:55;4.30;99.90
25346;DHT22;13300;51.032;3.710;2023-12-07T05:16:20;4.30;99.90
25346;DHT22;13300;51.032;3.710;2023-12-07T05:18:46;4.20;99.90
25346;DHT22;13300;51.032;3.710;2023-12-07T05:21:11;4.30;99.90
25346;DHT22;13300;51.032;3.710;2023-12-07T05:23:37;4.30;99.90
25346;DHT22;13300;51.032;3.710;2023-12-07T05:26:03;4.30;99.90
25346;DHT22;13300;51.032;3.710;2023-12-07T05:28:29;4.20;99.90
25346;DHT22;13300;51.032;3.710;2023-12-07T05:30:55;4.20;99.90
25346;DHT22;13300;51.032;3.710;2023-12-07T05:33:22;4.20;99.90
25346;DHT22;13300;51.032;3.710;2023-12-07T05:35:48;4.10;99.90
25346;DHT22;13300;51.032;3.710;2023-12-07T05:38:14;4.10;99.90
25346;DHT22;13300;51.032;3.710;2023-12-07T05:40:39;4.30;99.90
25346;DHT22;13300;51.032;3.710;2023-12-07T05:43:05;4.40;99.90
25346;DHT22;13300;51.032;3.710;2023-12-07T05:45:30;4.40;99.90
25346;DHT22;13300;51.032;3.710;2023-12-07T05:47:56;4.30;99.90
25346;DHT22;13300;51.032;3.710;2023-12-07T05:50:22;4.10;99.90
25346;DHT22;13300;51.032;3.710;2023-12-07T05:52:48;4.10;99.90
25346;DHT22;13300;51.032;3.710;2023-12-07T05:55:14;4.20;99.90
25346;DHT22;13300;51.032;3.710;2023-12-07T05:57:40;4.20;99.90
25346;DHT22;13300;51.032;3.710;2023-12-07T06:00:06;4.20;99.90
25346;DHT22;13300;51.032;3.710;2023-12-07T06:02:36;4.20;99.90
25346;DHT22;13300;51.032;3.710;2023-12-07T06:05:02;4.20;99.90
25346;DHT22;13300;51.032;3.710;2023-12-07T06:07:31;4.20;99.90
25346;DHT22;13300;51.032;3.710;2023-12-07T06:10:00;4.30;99.90
25346;DHT22;13300;51.032;3.710;2023-12-07T06:12:25;4.20;99.90
25346;DHT22;13300;51.032;3.710;2023-12-07T06:14:55;4.30;99.90
25346;DHT22;13300;51.032;3.710;2023-12-07T06:17:21;4.30;99.90
25346;DHT22;13300;51.032;3.710;2023-12-07T06:19:47;4.20;99.90
25346;DHT22;13300;51.032;3.710;2023-12-07T06:22:12;4.30;99.90
25346;DHT22;13300;51.032;3.710;2023-12-07T06:24:39;4.20;99.90
25346;DHT22;13300;51.032;3.710;2023-12-07T06:27:05;4.20;99.90
25346;DHT22;13300;51.032;3.710;2023-12-07T06:29:32;4.20;99.90
25346;DHT22;13300;51.032;3.710;2023-12-07T06:31:58;4.20;99.90
25346;DHT22;13300;51.032;3.710;2023-12-07T06:34:26;4.40;99.90
25346;DHT22;13300;51.032;3.710;2023-12-07T06:36:53;4.20;99.90
25346;DHT22;13300;51.032;3.710;2023-12-07T06:39:19;4.40;99.90
25346;DHT22;13300;51.032;3.710;2023-12-07T06:41:46;4.50;99.90
25346;DHT22;13300;51.032;3.710;2023-12-07T06:44:12;4.50;99.90
25346;DHT22;13300;51.032;3.710;2023-12-07T06:46:38;4.50;99.90
25346;DHT22;13300;51.032;3.710;2023-12-07T06:49:06;4.50;99.90
25346;DHT22;13300;51.032;3.710;2023-12-07T06:51:34;4.50;99.90
25346;DHT22;13300;51.032;3.710;2023-12-07T06:54:00;4.40;99.90
25346;DHT22;13300;51.032;3.710;2023-12-07T06:56:43;4.40;99.90
25346;DHT22;13300;51.032;3.710;2023-12-07T06:59:10;4.40;99.90
25346;DHT22;13300;51.032;3.710;2023-12-07T07:01:40;4.40;99.90
25346;DHT22;13300;51.032;3.710;2023-12-07T07:04:10;4.50;99.90
25346;DHT22;13300;51.032;3.710;2023-12-07T07:06:41;4.60;99.90
25346;DHT22;13300;51.032;3.710;2023-12-07T07:09:10;4.50;99.90
25346;DHT22;13300;51.032;3.710;2023-12-07T07:11:51;4.50;99.90
25346;DHT22;13300;51.032;3.710;2023-12-07T07:14:41;4.50;99.90
25346;DHT22;13300;51.032;3.710;2023-12-07T07:17:25;4.60;99.90
25346;DHT22;13300;51.032;3.710;2023-12-07T07:19:53;4.70;99.90
25346;DHT22;13300;51.032;3.710;2023-12-07T07:22:28;4.70;99.90
25346;DHT22;13300;51.032;3.710;2023-12-07T07:25:08;4.70;99.90
25346;DHT22;13300;51.032;3.710;2023-12-07T07:27:47;4.70;99.90
25346;DHT22;13300;51.032;3.710;2023-12-07T07:30:23;4.80;99.90
25346;DHT22;13300;51.032;3.710;2023-12-07T07:32:52;4.80;99.90
25346;DHT22;13300;51.032;3.710;2023-12-07T07:35:26;4.80;99.90
25346;DHT22;13300;51.032;3.710;2023-12-07T07:37:52;4.80;99.90
25346;DHT22;13300;51.032;3.710;2023-12-07T07:40:25;4.80;99.90
25346;DHT22;13300;51.032;3.710;2023-12-07T07:43:04;4.70;99.90
25346;DHT22;13300;51.032;3.710;2023-12-07T07:45:35;4.70;99.90
25346;DHT22;13300;51.032;3.710;2023-12-07T07:48:25;4.70;99.90
25346;DHT22;13300;51.032;3.710;2023-12-07T07:51:20;4.60;99.90
25346;DHT22;13300;51.032;3.710;2023-12-07T07:53:52;4.70;99.90
25346;DHT22;13300;51.032;3.710;2023-12-07T07:56:45;4.70;99.90
25346;DHT22;13300;51.032;3.710;2023-12-07T07:59:29;4.70;99.90
25346;DHT22;13300;51.032;3.710;2023-12-07T08:02:12;4.80;99.90
25346;DHT22;13300;51.032;3.710;2023-12-07T08:04:53;4.80;99.90
25346;DHT22;13300;51.032;3.710;2023-12-07T08:07:32;4.90;99.90
25346;DHT22;13300;51.032;3.710;2023-12-07T08:09:58;5.00;99.90
25346;DHT22;13300;51.032;3.710;2023-12-07T08:12:32;4.80;99.90
25346;DHT22;13300;51.032;3.710;2023-12-07T08:15:29;5.00;99.90
25346;DHT22;13300;51.032;3.710;2023-12-07T08:18:00;5.00;99.90
25346;DHT22;13300;51.032;3.710;2023-12-07T08:20:39;5.00;99.90
25346;DHT22;13300;51.032;3.710;2023-12-07T08:23:10;5.20;99.90
25346;DHT22;13300;51.032;3.710;2023-12-07T08:26:06;5.10;99.90
25346;DHT22;13300;51.032;3.710;2023-12-07T08:28:46;5.00;99.90
25346;DHT22;13300;51.032;3.710;2023-12-07T08:31:35;5.10;99.90
25346;DHT22;13300;51.032;3.710;2023-12-07T08:34:08;5.20;99.90
25346;DHT22;13300;51.032;3.710;2023-12-07T08:36:42;5.20;99.90
25346;DHT22;13300;51.032;3.710;2023-12-07T08:39:23;5.30;99.90
25346;DHT22;13300;51.032;3.710;2023-12-07T08:41:55;5.20;99.90
25346;DHT22;13300;51.032;3.710;2023-12-07T08:44:44;5.30;99.90
25346;DHT22;13300;51.032;3.710;2023-12-07T08:47:19;5.50;99.90
25346;DHT22;13300;51.032;3.710;2023-12-07T08:49:50;5.50;99.90
25346;DHT22;13300;51.032;3.710;2023-12-07T08:52:16;5.40;99.90
25346;DHT22;13300;51.032;3.710;2023-12-07T08:55:11;5.50;99.90
25346;DHT22;13300;51.032;3.710;2023-12-07T08:57:50;5.50;99.90
25346;DHT22;13300;51.032;3.710;2023-12-07T09:00:37;5.50;99.90
25346;DHT22;13300;51.032;3.710;2023-12-07T09:03:16;5.30;99.90
25346;DHT22;13300;51.032;3.710;2023-12-07T09:05:57;5.40;99.90
25346;DHT22;13300;51.032;3.710;2023-12-07T09:08:36;5.40;99.90
25346;DHT22;13300;51.032;3.710;2023-12-07T09:11:02;5.50;99.90
25346;DHT22;13300;51.032;3.710;2023-12-07T09:13:39;5.50;99.90
25346;DHT22;13300;51.032;3.710;2023-12-07T09:16:10;5.60;99.90
25346;DHT22;13300;51.032;3.710;2023-12-07T09:18:49;5.80;99.90
25346;DHT22;13300;51.032;3.710;2023-12-07T09:21:17;5.80;99.90
25346;DHT22;13300;51.032;3.710;2023-12-07T09:24:03;6.00;99.90
25346;DHT22;13300;51.032;3.710;2023-12-07T09:26:43;6.50;99.90
25346;DHT22;13300;51.032;3.710;2023-12-07T09:29:12;7.00;99.90
25346;DHT22;13300;51.032;3.710;2023-12-07T09:31:37;6.90;99.90
25346;DHT22;13300;51.032;3.710;2023-12-07T09:34:09;6.90;99.90
25346;DHT22;13300;51.032;3.710;2023-12-07T09:36:39;6.90;99.90
25346;DHT22;13300;51.032;3.710;2023-12-07T09:39:07;7.10;99.90
25346;DHT22;13300;51.032;3.710;2023-12-07T09:41:39;7.60;99.90
25346;DHT22;13300;51.032;3.710;2023-12-07T09:44:08;7.70;99.90
25346;DHT22;13300;51.032;3.710;2023-12-07T09:46:51;8.00;99.90
25346;DHT22;13300;51.032;3.710;2023-12-07T09:49:25;8.60;99.90
25346;DHT22;13300;51.032;3.710;2023-12-07T09:52:19;8.90;99.90
25346;DHT22;13300;51.032;3.710;2023-12-07T09:54:51;9.00;99.90
25346;DHT22;13300;51.032;3.710;2023-12-07T09:57:22;9.10;99.90
25346;DHT22;13300;51.032;3.710;2023-12-07T09:59:55;8.70;99.90
25346;DHT22;13300;51.032;3.710;2023-12-07T10:02:24;8.40;99.90
25346;DHT22;13300;51.032;3.710;2023-12-07T10:05:06;8.20;99.90
25346;DHT22;13300;51.032;3.710;2023-12-07T10:07:33;8.40;99.90
25346;DHT22;13300;51.032;3.710;2023-12-07T10:10:01;8.90;99.90
25346;DHT22;13300;51.032;3.710;2023-12-07T10:12:31;9.30;99.90
25346;DHT22;13300;51.032;3.710;2023-12-07T10:15:25;9.70;99.90
25346;DHT22;13300;51.032;3.710;2023-12-07T10:18:06;10.10;99.90
25346;DHT22;13300;51.032;3.710;2023-12-07T10:20:37;10.20;99.90
25346;DHT22;13300;51.032;3.710;2023-12-07T10:23:22;9.70;99.90
25346;DHT22;13300;51.032;3.710;2023-12-07T10:25:50;9.30;99.90
25346;DHT22;13300;51.032;3.710;2023-12-07T10:28:19;9.20;99.90
25346;DHT22;13300;51.032;3.710;2023-12-07T10:30:51;9.20;99.90
25346;DHT22;13300;51.032;3.710;2023-12-07T10:33:31;8.90;99.90
25346;DHT22;13300;51.032;3.710;2023-12-07T10:35:57;8.40;99.90
25346;DHT22;13300;51.032;3.710;2023-12-07T10:38:30;8.60;99.90
25346;DHT22;13300;51.032;3.710;2023-12-07T10:41:29;8.70;99.90
25346;DHT22;13300;51.032;3.710;2023-12-07T10:44:00;8.90;99.90
25346;DHT22;13300;51.032;3.710;2023-12-07T10:46:26;8.80;99.90
25346;DHT22;13300;51.032;3.710;2023-12-07T10:49:00;8.90;99.90
25346;DHT22;13300;51.032;3.710;2023-12-07T10:51:51;8.70;99.90
25346;DHT22;13300;51.032;3.710;2023-12-07T10:54:23;8.90;99.90
25346;DHT22;13300;51.032;3.710;2023-12-07T10:56:55;9.40;99.90
25346;DHT22;13300;51.032;3.710;2023-12-07T10:59:35;9.30;99.90
25346;DHT22;13300;51.032;3.710;2023-12-07T11:02:05;9.30;99.90
25346;DHT22;13300;51.032;3.710;2023-12-07T11:04:37;9.10;99.90
25346;DHT22;13300;51.032;3.710;2023-12-07T11:07:14;9.00;99.90
25346;DHT22;13300;51.032;3.710;2023-12-07T11:09:47;8.70;99.90
25346;DHT22;13300;51.032;3.710;2023-12-07T11:12:39;8.80;99.90
25346;DHT22;13300;51.032;3.710;2023-12-07T11:15:20;9.00;99.90
25346;DHT22;13300;51.032;3.710;2023-12-07T11:17:59;8.90;99.90
25346;DHT22;13300;51.032;3.710;2023-12-07T11:20:41;8.90;99.90
25346;DHT22;13300;51.032;3.710;2023-12-07T11:23:33;8.60;99.90
25346;DHT22;13300;51.032;3.710;2023-12-07T11:26:19;8.40;99.90
25346;DHT22;13300;51.032;3.710;2023-12-07T11:28:46;8.50;99.90
25346;DHT22;13300;51.032;3.710;2023-12-07T11:31:28;8.20;99.90
25346;DHT22;13300;51.032;3.710;2023-12-07T11:34:19;7.90;99.90
25346;DHT22;13300;51.032;3.710;2023-12-07T11:36:55;8.00;99.90
25346;DHT22;13300;51.032;3.710;2023-12-07T11:39:24;8.00;99.90
25346;DHT22;13300;51.032;3.710;2023-12-07T11:41:54;8.10;99.90
25346;DHT22;13300;51.032;3.710;2023-12-07T11:44:41;8.10;99.90
25346;DHT22;13300;51.032;3.710;2023-12-07T11:47:15;8.20;99.90
25346;DHT22;13300;51.032;3.710;2023-12-07T11:49:46;8.10;99.90
25346;DHT22;13300;51.032;3.710;2023-12-07T11:52:21;7.90;99.90
25346;DHT22;13300;51.032;3.710;2023-12-07T11:55:07;7.80;99.90
25346;DHT22;13300;51.032;3.710;2023-12-07T11:57:41;7.50;99.90
25346;DHT22;13300;51.032;3.710;2023-12-07T12:00:12;7.50;99.90
25346;DHT22;13300;51.032;3.710;2023-12-07T12:02:58;7.50;99.90
25346;DHT22;13300;51.032;3.710;2023-12-07T12:05:37;7.40;99.90
25346;DHT22;13300;51.032;3.710;2023-12-07T12:08:08;7.10;99.90
25346;DHT22;13300;51.032;3.710;2023-12-07T12:10:50;7.10;99.90
25346;DHT22;13300;51.032;3.710;2023-12-07T12:13:19;7.10;99.90
25346;DHT22;13300;51.032;3.710;2023-12-07T12:15:46;7.20;99.90
25346;DHT22;13300;51.032;3.710;2023-12-07T12:18:21;7.40;99.90
25346;DHT22;13300;51.032;3.710;2023-12-07T12:21:06;7.20;99.90
25346;DHT22;13300;51.032;3.710;2023-12-07T12:23:32;7.10;99.90
25346;DHT22;13300;51.032;3.710;2023-12-07T12:28:47;7.10;99.90
25346;DHT22;13300;51.032;3.710;2023-12-07T12:31:24;7.20;99.90
25346;DHT22;13300;51.032;3.710;2023-12-07T12:34:08;7.30;99.90
25346;DHT22;13300;51.032;3.710;2023-12-07T12:36:45;7.30;99.90
25346;DHT22;13300;51.032;3.710;2023-12-07T12:39:13;7.30;99.90
25346;DHT22;13300;51.032;3.710;2023-12-07T12:41:54;7.40;99.90
25346;DHT22;13300;51.032;3.710;2023-12-07T12:44:32;7.40;99.90
25346;DHT22;13300;51.032;3.710;2023-12-07T12:47:10;7.20;99.90
25346;DHT22;13300;51.032;3.710;2023-12-07T12:49:41;7.20;99.90
25346;DHT22;13300;51.032;3.710;2023-12-07T12:52:35;7.20;99.90
25346;DHT22;13300;51.032;3.710;2023-12-07T12:55:06;7.20;99.90
25346;DHT22;13300;51.032;3.710;2023-12-07T12:57:32;7.10;99.90
25346;DHT22;13300;51.032;3.710;2023-12-07T13:00:05;7.20;99.90
25346;DHT22;13300;51.032;3.710;2023-12-07T13:02:47;7.30;99.90
25346;DHT22;13300;51.032;3.710;2023-12-07T13:05:18;7.10;99.90
25346;DHT22;13300;51.032;3.710;2023-12-07T13:07:45;7.20;99.90
25346;DHT22;13300;51.032;3.710;2023-12-07T13:10:29;7.10;99.90
25346;DHT22;13300;51.032;3.710;2023-12-07T13:12:58;7.20;99.90
25346;DHT22;13300;51.032;3.710;2023-12-07T13:15:29;7.20;99.90
25346;DHT22;13300;51.032;3.710;2023-12-07T13:17:59;7.20;99.90
25346;DHT22;13300;51.032;3.710;2023-12-07T13:20:26;7.20;99.90
25346;DHT22;13300;51.032;3.710;2023-12-07T13:23:02;7.30;99.90
25346;DHT22;13300;51.032;3.710;2023-12-07T13:25:34;7.10;99.90
25346;DHT22;13300;51.032;3.710;2023-12-07T13:28:13;7.20;99.90
25346;DHT22;13300;51.032;3.710;2023-12-07T13:30:42;7.20;99.90
25346;DHT22;13300;51.032;3.710;2023-12-07T13:33:25;7.20;99.90
25346;DHT22;13300;51.032;3.710;2023-12-07T13:35:56;7.40;99.90
25346;DHT22;13300;51.032;3.710;2023-12-07T13:38:23;7.30;99.90
25346;DHT22;13300;51.032;3.710;2023-12-07T13:40:59;7.30;99.90
25346;DHT22;13300;51.032;3.710;2023-12-07T13:43:35;7.40;99.90
25346;DHT22;13300;51.032;3.710;2023-12-07T13:46:04;7.30;99.90
25346;DHT22;13300;51.032;3.710;2023-12-07T13:48:52;7.40;99.90
25346;DHT22;13300;51.032;3.710;2023-12-07T13:51:30;7.40;99.90
25346;DHT22;13300;51.032;3.710;2023-12-07T13:54:02;7.20;99.90
25346;DHT22;13300;51.032;3.710;2023-12-07T13:56:34;7.20;99.90
25346;DHT22;13300;51.032;3.710;2023-12-07T13:59:08;7.40;99.90
25346;DHT22;13300;51.032;3.710;2023-12-07T14:01:36;7.30;99.90
25346;DHT22;13300;51.032;3.710;2023-12-07T14:04:07;7.30;99.90
25346;DHT22;13300;51.032;3.710;2023-12-07T14:06:35;7.30;99.90
25346;DHT22;13300;51.032;3.710;2023-12-07T14:09:02;7.20;99.90
25346;DHT22;13300;51.032;3.710;2023-12-07T14:11:29;7.10;99.90
25346;DHT22;13300;51.032;3.710;2023-12-07T14:13:55;7.00;99.90
25346;DHT22;13300;51.032;3.710;2023-12-07T14:16:28;6.90;99.90
25346;DHT22;13300;51.032;3.710;2023-12-07T14:18:57;7.00;99.90
25346;DHT22;13300;51.032;3.710;2023-12-07T14:21:29;6.90;99.90
25346;DHT22;13300;51.032;3.710;2023-12-07T14:24:04;6.90;99.90
25346;DHT22;13300;51.032;3.710;2023-12-07T14:26:32;6.90;99.90
25346;DHT22;13300;51.032;3.710;2023-12-07T14:29:01;6.80;99.90
25346;DHT22;13300;51.032;3.710;2023-12-07T14:31:29;6.90;99.90
25346;DHT22;13300;51.032;3.710;2023-12-07T14:33:57;6.80;99.90
25346;DHT22;13300;51.032;3.710;2023-12-07T14:36:26;6.80;99.90
25346;DHT22;13300;51.032;3.710;2023-12-07T14:39:06;6.80;99.90
25346;DHT22;13300;51.032;3.710;2023-12-07T14:41:47;6.60;99.90
25346;DHT22;13300;51.032;3.710;2023-12-07T14:44:17;6.70;99.90
25346;DHT22;13300;51.032;3.710;2023-12-07T14:46:52;6.80;99.90
25346;DHT22;13300;51.032;3.710;2023-12-07T14:49:20;6.60;99.90
25346;DHT22;13300;51.032;3.710;2023-12-07T14:51:47;6.60;99.90
25346;DHT22;13300;51.032;3.710;2023-12-07T14:54:14;6.50;99.90
25346;DHT22;13300;51.032;3.710;2023-12-07T14:56:46;6.60;99.90
25346;DHT22;13300;51.032;3.710;2023-12-07T14:59:13;6.60;99.90
25346;DHT22;13300;51.032;3.710;2023-12-07T15:01:40;6.50;99.90
25346;DHT22;13300;51.032;3.710;2023-12-07T15:04:12;6.40;99.90
25346;DHT22;13300;51.032;3.710;2023-12-07T15:06:48;6.40;99.90
25346;DHT22;13300;51.032;3.710;2023-12-07T15:09:14;6.40;99.90
25346;DHT22;13300;51.032;3.710;2023-12-07T15:11:42;6.40;99.90
25346;DHT22;13300;51.032;3.710;2023-12-07T15:14:25;6.30;99.90
25346;DHT22;13300;51.032;3.710;2023-12-07T15:16:57;6.40;99.90
25346;DHT22;13300;51.032;3.710;2023-12-07T15:19:32;6.40;99.90
25346;DHT22;13300;51.032;3.710;2023-12-07T15:22:14;6.40;99.90
25346;DHT22;13300;51.032;3.710;2023-12-07T15:24:53;6.30;99.90
25346;DHT22;13300;51.032;3.710;2023-12-07T15:27:19;6.30;99.90
25346;DHT22;13300;51.032;3.710;2023-12-07T15:29:48;6.30;99.90
25346;DHT22;13300;51.032;3.710;2023-12-07T15:32:38;6.20;99.90
25346;DHT22;13300;51.032;3.710;2023-12-07T15:35:08;6.10;99.90
25346;DHT22;13300;51.032;3.710;2023-12-07T15:37:37;6.20;99.90
25346;DHT22;13300;51.032;3.710;2023-12-07T15:40:34;6.20;99.90
25346;DHT22;13300;51.032;3.710;2023-12-07T15:43:02;6.10;99.90
25346;DHT22;13300;51.032;3.710;2023-12-07T15:45:30;6.20;99.90
25346;DHT22;13300;51.032;3.710;2023-12-07T15:48:02;6.20;99.90
25346;DHT22;13300;51.032;3.710;2023-12-07T15:50:33;6.30;99.90
25346;DHT22;13300;51.032;3.710;2023-12-07T15:53:27;6.20;99.90
25346;DHT22;13300;51.032;3.710;2023-12-07T15:55:55;6.10;99.90
25346;DHT22;13300;51.032;3.710;2023-12-07T15:58:31;6.20;99.90
25346;DHT22;13300;51.032;3.710;2023-12-07T16:01:07;6.20;99.90
25346;DHT22;13300;51.032;3.710;2023-12-07T16:03:33;6.10;99.90
25346;DHT22;13300;51.032;3.710;2023-12-07T16:06:04;6.20;99.90
25346;DHT22;13300;51.032;3.710;2023-12-07T16:08:33;6.20;99.90
25346;DHT22;13300;51.032;3.710;2023-12-07T16:11:04;6.10;99.90
25346;DHT22;13300;51.032;3.710;2023-12-07T16:13:36;6.10;99.90
25346;DHT22;13300;51.032;3.710;2023-12-07T16:16:10;6.20;99.90